sensor_id;sensor_type;location;lat;lon;timestamp;P1;durP1;ratioP1;P2;durP2;ratioP2
77016;SDS011;65949;53.132;17.930;2024-03-25T00:00:36;13.40;;;6.40;;
77016;SDS011;65949;53.132;17.930;2024-03-25T00:03:22;14.10;;;6.30;;
77016;SDS011;65949;53.132;17.930;2024-03-25T00:05:49;14.70;;;6.30;;
77016;SDS011;65949;53.132;17.930;2024-03-25T00:08:16;15.10;;;6.40;;
77016;SDS011;65949;53.132;17.930;2024-03-25T00:10:43;14.50;;;5.80;;
77016;SDS011;65949;53.132;17.930;2024-03-25T00:13:09;17.10;;;7.00;;
77016;SDS011;65949;53.132;17.930;2024-03-25T00:15:36;28.90;;;11.00;;
77016;SDS011;65949;53.132;17.930;2024-03-25T00:18:04;31.60;;;9.90;;
77016;SDS011;65949;53.132;17.930;2024-03-25T00:20:31;19.80;;;7.90;;
77016;SDS011;65949;53.132;17.930;2024-03-25T00:22:57;12.60;;;6.20;;
77016;SDS011;65949;53.132;17.930;2024-03-25T00:25:24;13.40;;;5.80;;
77016;SDS011;65949;53.132;17.930;2024-03-25T00:27:50;13.50;;;6.00;;
77016;SDS011;65949;53.132;17.930;2024-03-25T00:30:17;12.40;;;5.60;;
77016;SDS011;65949;53.132;17.930;2024-03-25T00:32:43;11.90;;;5.80;;
77016;SDS011;65949;53.132;17.930;2024-03-25T00:35:10;12.60;;;5.00;;
77016;SDS011;65949;53.132;17.930;2024-03-25T00:37:36;12.30;;;5.80;;
77016;SDS011;65949;53.132;17.930;2024-03-25T00:40:03;13.20;;;6.30;;
77016;SDS011;65949;53.132;17.930;2024-03-25T00:42:30;16.50;;;6.10;;
77016;SDS011;65949;53.132;17.930;2024-03-25T00:44:57;13.10;;;6.00;;
77016;SDS011;65949;53.132;17.930;2024-03-25T00:47:24;14.10;;;6.40;;
77016;SDS011;65949;53.132;17.930;2024-03-25T00:49:50;14.70;;;6.00;;
77016;SDS011;65949;53.132;17.930;2024-03-25T00:52:17;14.00;;;6.10;;
77016;SDS011;65949;53.132;17.930;2024-03-25T00:54:43;13.00;;;5.80;;
77016;SDS011;65949;53.132;17.930;2024-03-25T00:57:10;14.30;;;6.00;;
77016;SDS011;65949;53.132;17.930;2024-03-25T00:59:38;14.40;;;6.70;;
77016;SDS011;65949;53.132;17.930;2024-03-25T01:02:05;13.20;;;6.10;;
77016;SDS011;65949;53.132;17.930;2024-03-25T01:04:32;14.10;;;6.10;;
77016;SDS011;65949;53.132;17.930;2024-03-25T01:06:59;13.00;;;6.10;;
77016;SDS011;65949;53.132;17.930;2024-03-25T01:09:25;15.50;;;7.10;;
77016;SDS011;65949;53.132;17.930;2024-03-25T01:11:52;13.50;;;6.20;;
77016;SDS011;65949;53.132;17.930;2024-03-25T01:14:19;14.90;;;6.50;;
77016;SDS011;65949;53.132;17.930;2024-03-25T01:16:45;17.80;;;6.40;;
77016;SDS011;65949;53.132;17.930;2024-03-25T01:19:12;12.90;;;6.50;;
77016;SDS011;65949;53.132;17.930;2024-03-25T01:21:38;14.30;;;6.60;;
77016;SDS011;65949;53.132;17.930;2024-03-25T01:24:05;12.80;;;6.20;;
77016;SDS011;65949;53.132;17.930;2024-03-25T01:26:31;14.70;;;6.20;;
77016;SDS011;65949;53.132;17.930;2024-03-25T01:28:58;14.80;;;6.40;;
77016;SDS011;65949;53.132;17.930;2024-03-25T01:31:24;15.40;;;7.40;;
77016;SDS011;65949;53.132;17.930;2024-03-25T01:33:51;15.90;;;7.10;;
77016;SDS011;65949;53.132;17.930;2024-03-25T01:36:17;14.70;;;7.40;;
77016;SDS011;65949;53.132;17.930;2024-03-25T01:38:44;15.50;;;7.00;;
77016;SDS011;65949;53.132;17.930;2024-03-25T01:41:11;15.20;;;7.40;;
77016;SDS011;65949;53.132;17.930;2024-03-25T01:43:41;16.90;;;8.30;;
77016;SDS011;65949;53.132;17.930;2024-03-25T01:46:08;15.60;;;7.40;;
77016;SDS011;65949;53.132;17.930;2024-03-25T01:48:36;17.70;;;7.80;;
77016;SDS011;65949;53.132;17.930;2024-03-25T01:51:02;23.40;;;8.80;;
77016;SDS011;65949;53.132;17.930;2024-03-25T01:53:29;32.90;;;11.80;;
77016;SDS011;65949;53.132;17.930;2024-03-25T01:55:57;28.80;;;9.80;;
77016;SDS011;65949;53.132;17.930;2024-03-25T01:58:25;66.40;;;21.70;;
77016;SDS011;65949;53.132;17.930;2024-03-25T02:00:53;109.80;;;33.90;;
77016;SDS011;65949;53.132;17.930;2024-03-25T02:03:21;165.40;;;51.40;;
77016;SDS011;65949;53.132;17.930;2024-03-25T02:05:53;122.40;;;37.50;;
77016;SDS011;65949;53.132;17.930;2024-03-25T02:08:23;82.50;;;25.00;;
77016;SDS011;65949;53.132;17.930;2024-03-25T02:10:50;101.30;;;29.20;;
77016;SDS011;65949;53.132;17.930;2024-03-25T02:13:19;128.70;;;34.40;;
77016;SDS011;65949;53.132;17.930;2024-03-25T02:15:45;81.10;;;24.60;;
77016;SDS011;65949;53.132;17.930;2024-03-25T02:18:12;69.10;;;21.00;;
77016;SDS011;65949;53.132;17.930;2024-03-25T02:20:39;42.10;;;14.60;;
77016;SDS011;65949;53.132;17.930;2024-03-25T02:23:05;37.60;;;15.00;;
77016;SDS011;65949;53.132;17.930;2024-03-25T02:25:32;25.90;;;11.40;;
77016;SDS011;65949;53.132;17.930;2024-03-25T02:28:00;28.30;;;12.70;;
77016;SDS011;65949;53.132;17.930;2024-03-25T02:30:27;29.30;;;12.40;;
77016;SDS011;65949;53.132;17.930;2024-03-25T02:32:53;45.90;;;15.50;;
77016;SDS011;65949;53.132;17.930;2024-03-25T02:35:20;46.10;;;15.20;;
77016;SDS011;65949;53.132;17.930;2024-03-25T02:37:47;24.40;;;10.00;;
77016;SDS011;65949;53.132;17.930;2024-03-25T02:40:16;23.80;;;10.70;;
77016;SDS011;65949;53.132;17.930;2024-03-25T02:42:44;23.20;;;10.90;;
77016;SDS011;65949;53.132;17.930;2024-03-25T02:45:11;28.90;;;12.60;;
77016;SDS011;65949;53.132;17.930;2024-03-25T02:47:37;24.00;;;11.90;;
77016;SDS011;65949;53.132;17.930;2024-03-25T02:50:04;23.40;;;10.90;;
77016;SDS011;65949;53.132;17.930;2024-03-25T02:52:31;23.00;;;10.50;;
77016;SDS011;65949;53.132;17.930;2024-03-25T02:54:58;24.70;;;10.80;;
77016;SDS011;65949;53.132;17.930;2024-03-25T02:57:24;40.70;;;13.90;;
77016;SDS011;65949;53.132;17.930;2024-03-25T02:59:51;26.90;;;11.90;;
77016;SDS011;65949;53.132;17.930;2024-03-25T03:02:18;36.20;;;12.50;;
77016;SDS011;65949;53.132;17.930;2024-03-25T03:04:44;37.90;;;13.70;;
77016;SDS011;65949;53.132;17.930;2024-03-25T03:07:11;37.80;;;13.40;;
77016;SDS011;65949;53.132;17.930;2024-03-25T03:09:37;36.80;;;14.60;;
77016;SDS011;65949;53.132;17.930;2024-03-25T03:12:04;46.50;;;15.20;;
77016;SDS011;65949;53.132;17.930;2024-03-25T03:14:31;39.70;;;14.10;;
77016;SDS011;65949;53.132;17.930;2024-03-25T03:16:58;24.60;;;11.90;;
77016;SDS011;65949;53.132;17.930;2024-03-25T03:19:27;23.20;;;10.50;;
77016;SDS011;65949;53.132;17.930;2024-03-25T03:21:55;30.20;;;12.50;;
77016;SDS011;65949;53.132;17.930;2024-03-25T03:24:21;37.90;;;14.90;;
77016;SDS011;65949;53.132;17.930;2024-03-25T03:26:49;33.70;;;13.30;;
77016;SDS011;65949;53.132;17.930;2024-03-25T03:29:16;32.50;;;13.40;;
77016;SDS011;65949;53.132;17.930;2024-03-25T03:31:42;32.00;;;13.10;;
77016;SDS011;65949;53.132;17.930;2024-03-25T03:34:10;30.10;;;13.40;;
77016;SDS011;65949;53.132;17.930;2024-03-25T03:36:36;30.60;;;14.60;;
77016;SDS011;65949;53.132;17.930;2024-03-25T03:39:03;32.90;;;14.60;;
77016;SDS011;65949;53.132;17.930;2024-03-25T03:41:29;32.40;;;14.50;;
77016;SDS011;65949;53.132;17.930;2024-03-25T03:43:56;37.50;;;14.50;;
77016;SDS011;65949;53.132;17.930;2024-03-25T03:46:22;28.40;;;13.10;;
77016;SDS011;65949;53.132;17.930;2024-03-25T03:48:49;27.60;;;12.80;;
77016;SDS011;65949;53.132;17.930;2024-03-25T03:51:15;34.60;;;16.20;;
77016;SDS011;65949;53.132;17.930;2024-03-25T03:53:42;84.60;;;28.70;;
77016;SDS011;65949;53.132;17.930;2024-03-25T03:56:08;57.40;;;22.00;;
77016;SDS011;65949;53.132;17.930;2024-03-25T03:58:35;47.80;;;20.40;;
77016;SDS011;65949;53.132;17.930;2024-03-25T04:01:02;42.70;;;18.40;;
77016;SDS011;65949;53.132;17.930;2024-03-25T04:03:30;34.60;;;15.10;;
77016;SDS011;65949;53.132;17.930;2024-03-25T04:05:57;27.30;;;13.20;;
77016;SDS011;65949;53.132;17.930;2024-03-25T04:08:23;30.40;;;12.80;;
77016;SDS011;65949;53.132;17.930;2024-03-25T04:10:50;25.80;;;11.50;;
77016;SDS011;65949;53.132;17.930;2024-03-25T04:13:17;27.50;;;11.30;;
77016;SDS011;65949;53.132;17.930;2024-03-25T04:15:43;25.90;;;12.10;;
77016;SDS011;65949;53.132;17.930;2024-03-25T04:18:10;31.10;;;14.30;;
77016;SDS011;65949;53.132;17.930;2024-03-25T04:20:38;33.00;;;14.40;;
77016;SDS011;65949;53.132;17.930;2024-03-25T04:23:06;39.00;;;14.80;;
77016;SDS011;65949;53.132;17.930;2024-03-25T04:25:33;33.00;;;14.40;;
77016;SDS011;65949;53.132;17.930;2024-03-25T04:28:01;32.60;;;13.70;;
77016;SDS011;65949;53.132;17.930;2024-03-25T04:30:27;26.40;;;12.80;;
77016;SDS011;65949;53.132;17.930;2024-03-25T04:32:54;28.40;;;13.80;;
77016;SDS011;65949;53.132;17.930;2024-03-25T04:35:20;29.90;;;14.60;;
77016;SDS011;65949;53.132;17.930;2024-03-25T04:37:47;33.70;;;14.20;;
77016;SDS011;65949;53.132;17.930;2024-03-25T04:40:13;36.80;;;14.60;;
77016;SDS011;65949;53.132;17.930;2024-03-25T04:42:41;31.40;;;14.00;;
77016;SDS011;65949;53.132;17.930;2024-03-25T04:45:08;28.70;;;12.70;;
77016;SDS011;65949;53.132;17.930;2024-03-25T04:47:35;24.00;;;12.40;;
77016;SDS011;65949;53.132;17.930;2024-03-25T04:50:01;22.20;;;11.30;;
77016;SDS011;65949;53.132;17.930;2024-03-25T04:52:29;22.90;;;11.90;;
77016;SDS011;65949;53.132;17.930;2024-03-25T04:54:55;30.10;;;14.10;;
77016;SDS011;65949;53.132;17.930;2024-03-25T04:57:22;27.90;;;14.80;;
77016;SDS011;65949;53.132;17.930;2024-03-25T04:59:49;26.90;;;13.90;;
77016;SDS011;65949;53.132;17.930;2024-03-25T05:02:15;29.70;;;13.90;;
77016;SDS011;65949;53.132;17.930;2024-03-25T05:04:42;26.50;;;12.80;;
77016;SDS011;65949;53.132;17.930;2024-03-25T05:07:08;30.80;;;13.80;;
77016;SDS011;65949;53.132;17.930;2024-03-25T05:09:36;29.60;;;14.10;;
77016;SDS011;65949;53.132;17.930;2024-03-25T05:12:03;28.70;;;13.70;;
77016;SDS011;65949;53.132;17.930;2024-03-25T05:14:30;26.80;;;12.80;;
77016;SDS011;65949;53.132;17.930;2024-03-25T05:16:56;30.60;;;14.00;;
77016;SDS011;65949;53.132;17.930;2024-03-25T05:19:23;26.20;;;13.40;;
77016;SDS011;65949;53.132;17.930;2024-03-25T05:21:49;27.20;;;13.30;;
77016;SDS011;65949;53.132;17.930;2024-03-25T05:24:16;24.70;;;11.80;;
77016;SDS011;65949;53.132;17.930;2024-03-25T05:26:42;20.00;;;10.30;;
77016;SDS011;65949;53.132;17.930;2024-03-25T05:29:09;20.40;;;10.60;;
77016;SDS011;65949;53.132;17.930;2024-03-25T05:31:36;22.10;;;10.80;;
77016;SDS011;65949;53.132;17.930;2024-03-25T05:34:03;22.60;;;11.50;;
77016;SDS011;65949;53.132;17.930;2024-03-25T05:36:34;23.40;;;11.40;;
77016;SDS011;65949;53.132;17.930;2024-03-25T05:39:01;26.50;;;11.80;;
77016;SDS011;65949;53.132;17.930;2024-03-25T05:41:28;25.70;;;12.40;;
77016;SDS011;65949;53.132;17.930;2024-03-25T05:43:55;21.90;;;11.00;;
77016;SDS011;65949;53.132;17.930;2024-03-25T05:46:21;22.70;;;11.00;;
77016;SDS011;65949;53.132;17.930;2024-03-25T05:48:48;20.30;;;10.50;;
77016;SDS011;65949;53.132;17.930;2024-03-25T05:51:15;21.00;;;10.10;;
77016;SDS011;65949;53.132;17.930;2024-03-25T05:53:41;18.80;;;9.30;;
77016;SDS011;65949;53.132;17.930;2024-03-25T05:56:08;18.60;;;9.20;;
77016;SDS011;65949;53.132;17.930;2024-03-25T05:58:35;17.50;;;8.60;;
77016;SDS011;65949;53.132;17.930;2024-03-25T06:01:01;17.70;;;8.80;;
77016;SDS011;65949;53.132;17.930;2024-03-25T06:03:28;17.10;;;8.00;;
77016;SDS011;65949;53.132;17.930;2024-03-25T06:05:54;16.80;;;8.50;;
77016;SDS011;65949;53.132;17.930;2024-03-25T06:08:21;16.50;;;8.70;;
77016;SDS011;65949;53.132;17.930;2024-03-25T06:10:59;18.80;;;9.20;;
77016;SDS011;65949;53.132;17.930;2024-03-25T06:13:29;19.60;;;10.30;;
77016;SDS011;65949;53.132;17.930;2024-03-25T06:15:56;21.00;;;10.40;;
77016;SDS011;65949;53.132;17.930;2024-03-25T06:18:22;22.30;;;13.60;;
77016;SDS011;65949;53.132;17.930;2024-03-25T06:20:50;22.90;;;12.50;;
77016;SDS011;65949;53.132;17.930;2024-03-25T06:23:26;21.20;;;10.40;;
77016;SDS011;65949;53.132;17.930;2024-03-25T06:25:55;18.70;;;10.30;;
77016;SDS011;65949;53.132;17.930;2024-03-25T06:28:22;19.40;;;10.90;;
77016;SDS011;65949;53.132;17.930;2024-03-25T06:30:50;19.30;;;10.00;;
77016;SDS011;65949;53.132;17.930;2024-03-25T06:33:36;18.50;;;10.20;;
77016;SDS011;65949;53.132;17.930;2024-03-25T06:36:22;19.10;;;10.00;;
77016;SDS011;65949;53.132;17.930;2024-03-25T06:38:48;19.50;;;10.70;;
77016;SDS011;65949;53.132;17.930;2024-03-25T06:41:15;23.30;;;11.40;;
77016;SDS011;65949;53.132;17.930;2024-03-25T06:43:41;21.30;;;10.20;;
77016;SDS011;65949;53.132;17.930;2024-03-25T06:46:08;21.30;;;10.50;;
77016;SDS011;65949;53.132;17.930;2024-03-25T06:48:35;21.70;;;11.30;;
77016;SDS011;65949;53.132;17.930;2024-03-25T06:51:05;21.70;;;11.20;;
77016;SDS011;65949;53.132;17.930;2024-03-25T06:53:32;22.70;;;10.80;;
77016;SDS011;65949;53.132;17.930;2024-03-25T06:55:59;48.40;;;25.10;;
77016;SDS011;65949;53.132;17.930;2024-03-25T06:58:27;25.10;;;13.00;;
77016;SDS011;65949;53.132;17.930;2024-03-25T07:00:55;23.20;;;11.50;;
77016;SDS011;65949;53.132;17.930;2024-03-25T07:03:23;20.80;;;10.60;;
77016;SDS011;65949;53.132;17.930;2024-03-25T07:05:50;18.10;;;9.20;;
77016;SDS011;65949;53.132;17.930;2024-03-25T07:08:21;19.10;;;9.40;;
77016;SDS011;65949;53.132;17.930;2024-03-25T07:10:48;19.10;;;10.10;;
77016;SDS011;65949;53.132;17.930;2024-03-25T07:13:14;20.20;;;10.60;;
77016;SDS011;65949;53.132;17.930;2024-03-25T07:15:42;18.80;;;9.30;;
77016;SDS011;65949;53.132;17.930;2024-03-25T07:18:09;16.70;;;8.80;;
77016;SDS011;65949;53.132;17.930;2024-03-25T07:20:37;18.00;;;9.20;;
77016;SDS011;65949;53.132;17.930;2024-03-25T07:23:04;148.00;;;71.40;;
77016;SDS011;65949;53.132;17.930;2024-03-25T07:25:31;63.50;;;33.80;;
77016;SDS011;65949;53.132;17.930;2024-03-25T07:27:58;21.70;;;10.20;;
77016;SDS011;65949;53.132;17.930;2024-03-25T07:30:25;17.50;;;8.80;;
77016;SDS011;65949;53.132;17.930;2024-03-25T07:32:55;15.70;;;8.00;;
77016;SDS011;65949;53.132;17.930;2024-03-25T07:35:22;14.70;;;8.20;;
77016;SDS011;65949;53.132;17.930;2024-03-25T07:37:48;14.70;;;8.00;;
77016;SDS011;65949;53.132;17.930;2024-03-25T07:40:18;12.70;;;6.20;;
77016;SDS011;65949;53.132;17.930;2024-03-25T07:42:45;13.40;;;7.30;;
77016;SDS011;65949;53.132;17.930;2024-03-25T07:45:12;13.10;;;6.90;;
77016;SDS011;65949;53.132;17.930;2024-03-25T07:47:39;12.80;;;6.10;;
77016;SDS011;65949;53.132;17.930;2024-03-25T07:50:05;13.10;;;6.40;;
77016;SDS011;65949;53.132;17.930;2024-03-25T07:52:33;11.60;;;5.80;;
77016;SDS011;65949;53.132;17.930;2024-03-25T07:55:02;11.90;;;5.70;;
77016;SDS011;65949;53.132;17.930;2024-03-25T07:57:29;10.90;;;5.10;;
77016;SDS011;65949;53.132;17.930;2024-03-25T07:59:55;10.90;;;5.10;;
77016;SDS011;65949;53.132;17.930;2024-03-25T08:02:22;9.60;;;4.70;;
77016;SDS011;65949;53.132;17.930;2024-03-25T08:04:48;12.50;;;5.60;;
77016;SDS011;65949;53.132;17.930;2024-03-25T08:07:15;10.00;;;5.40;;
77016;SDS011;65949;53.132;17.930;2024-03-25T08:09:41;10.60;;;5.10;;
77016;SDS011;65949;53.132;17.930;2024-03-25T08:12:08;11.10;;;4.90;;
77016;SDS011;65949;53.132;17.930;2024-03-25T08:14:35;9.60;;;5.00;;
77016;SDS011;65949;53.132;17.930;2024-03-25T08:17:01;20.60;;;11.00;;
77016;SDS011;65949;53.132;17.930;2024-03-25T08:19:30;12.80;;;6.10;;
77016;SDS011;65949;53.132;17.930;2024-03-25T08:21:58;11.30;;;5.30;;
77016;SDS011;65949;53.132;17.930;2024-03-25T08:24:24;13.70;;;5.70;;
77016;SDS011;65949;53.132;17.930;2024-03-25T08:26:51;9.70;;;5.50;;
77016;SDS011;65949;53.132;17.930;2024-03-25T08:29:17;11.60;;;5.50;;
77016;SDS011;65949;53.132;17.930;2024-03-25T08:31:44;12.40;;;5.90;;
77016;SDS011;65949;53.132;17.930;2024-03-25T08:34:10;11.00;;;5.40;;
77016;SDS011;65949;53.132;17.930;2024-03-25T08:36:37;10.10;;;5.30;;
77016;SDS011;65949;53.132;17.930;2024-03-25T08:39:03;9.40;;;4.80;;
77016;SDS011;65949;53.132;17.930;2024-03-25T08:41:30;10.00;;;4.90;;
77016;SDS011;65949;53.132;17.930;2024-03-25T08:43:57;8.60;;;4.30;;
77016;SDS011;65949;53.132;17.930;2024-03-25T08:46:23;8.80;;;4.30;;
77016;SDS011;65949;53.132;17.930;2024-03-25T08:48:50;9.10;;;4.40;;
77016;SDS011;65949;53.132;17.930;2024-03-25T08:51:17;9.60;;;5.20;;
77016;SDS011;65949;53.132;17.930;2024-03-25T08:53:43;10.40;;;5.60;;
77016;SDS011;65949;53.132;17.930;2024-03-25T08:56:10;9.00;;;5.00;;
77016;SDS011;65949;53.132;17.930;2024-03-25T08:58:36;9.90;;;5.20;;
77016;SDS011;65949;53.132;17.930;2024-03-25T09:01:03;13.30;;;7.00;;
77016;SDS011;65949;53.132;17.930;2024-03-25T09:03:30;10.80;;;5.30;;
77016;SDS011;65949;53.132;17.930;2024-03-25T09:05:57;11.10;;;6.30;;
77016;SDS011;65949;53.132;17.930;2024-03-25T09:08:23;11.60;;;5.70;;
77016;SDS011;65949;53.132;17.930;2024-03-25T09:10:50;13.70;;;5.50;;
77016;SDS011;65949;53.132;17.930;2024-03-25T09:13:29;10.20;;;5.70;;
77016;SDS011;65949;53.132;17.930;2024-03-25T09:15:56;10.80;;;5.30;;
77016;SDS011;65949;53.132;17.930;2024-03-25T09:18:23;11.80;;;6.60;;
77016;SDS011;65949;53.132;17.930;2024-03-25T09:20:50;12.10;;;6.60;;
77016;SDS011;65949;53.132;17.930;2024-03-25T09:23:16;13.10;;;6.70;;
77016;SDS011;65949;53.132;17.930;2024-03-25T09:25:55;13.80;;;8.00;;
77016;SDS011;65949;53.132;17.930;2024-03-25T09:28:21;16.20;;;8.80;;
77016;SDS011;65949;53.132;17.930;2024-03-25T09:30:48;12.60;;;6.90;;
77016;SDS011;65949;53.132;17.930;2024-03-25T09:33:15;13.70;;;6.90;;
77016;SDS011;65949;53.132;17.930;2024-03-25T09:35:42;13.20;;;6.30;;
77016;SDS011;65949;53.132;17.930;2024-03-25T09:38:08;12.80;;;7.00;;
77016;SDS011;65949;53.132;17.930;2024-03-25T09:40:36;16.40;;;8.80;;
77016;SDS011;65949;53.132;17.930;2024-03-25T09:43:12;14.80;;;8.50;;
77016;SDS011;65949;53.132;17.930;2024-03-25T09:45:47;14.50;;;7.40;;
77016;SDS011;65949;53.132;17.930;2024-03-25T09:48:18;11.60;;;6.20;;
77016;SDS011;65949;53.132;17.930;2024-03-25T09:50:47;11.20;;;6.10;;
77016;SDS011;65949;53.132;17.930;2024-03-25T09:53:15;10.80;;;5.70;;
77016;SDS011;65949;53.132;17.930;2024-03-25T09:55:42;12.80;;;6.70;;
77016;SDS011;65949;53.132;17.930;2024-03-25T09:58:09;10.20;;;5.20;;
77016;SDS011;65949;53.132;17.930;2024-03-25T10:00:36;10.60;;;6.50;;
77016;SDS011;65949;53.132;17.930;2024-03-25T10:03:03;10.40;;;5.60;;
77016;SDS011;65949;53.132;17.930;2024-03-25T10:05:29;11.00;;;5.50;;
77016;SDS011;65949;53.132;17.930;2024-03-25T10:07:57;8.70;;;4.60;;
77016;SDS011;65949;53.132;17.930;2024-03-25T10:10:24;8.60;;;4.00;;
77016;SDS011;65949;53.132;17.930;2024-03-25T10:12:50;7.00;;;3.60;;
77016;SDS011;65949;53.132;17.930;2024-03-25T10:15:17;9.50;;;4.10;;
77016;SDS011;65949;53.132;17.930;2024-03-25T10:17:44;8.20;;;3.80;;
77016;SDS011;65949;53.132;17.930;2024-03-25T10:20:13;7.60;;;3.80;;
77016;SDS011;65949;53.132;17.930;2024-03-25T10:22:41;6.20;;;2.60;;
77016;SDS011;65949;53.132;17.930;2024-03-25T10:25:28;6.10;;;2.30;;
77016;SDS011;65949;53.132;17.930;2024-03-25T10:27:59;5.30;;;2.20;;
77016;SDS011;65949;53.132;17.930;2024-03-25T10:30:27;4.80;;;2.00;;
77016;SDS011;65949;53.132;17.930;2024-03-25T10:33:13;6.30;;;2.10;;
77016;SDS011;65949;53.132;17.930;2024-03-25T10:35:40;5.10;;;2.00;;
77016;SDS011;65949;53.132;17.930;2024-03-25T10:38:10;6.90;;;2.40;;
77016;SDS011;65949;53.132;17.930;2024-03-25T10:40:40;5.40;;;1.70;;
77016;SDS011;65949;53.132;17.930;2024-03-25T10:43:07;4.80;;;1.50;;
77016;SDS011;65949;53.132;17.930;2024-03-25T10:45:49;3.60;;;1.00;;
77016;SDS011;65949;53.132;17.930;2024-03-25T10:48:29;10.20;;;4.30;;
77016;SDS011;65949;53.132;17.930;2024-03-25T10:51:01;9.80;;;4.20;;
77016;SDS011;65949;53.132;17.930;2024-03-25T10:53:29;9.60;;;3.70;;
77016;SDS011;65949;53.132;17.930;2024-03-25T10:55:57;10.00;;;4.70;;
77016;SDS011;65949;53.132;17.930;2024-03-25T10:58:27;13.90;;;6.80;;
77016;SDS011;65949;53.132;17.930;2024-03-25T11:00:55;18.60;;;8.60;;
77016;SDS011;65949;53.132;17.930;2024-03-25T11:03:23;27.80;;;13.50;;
77016;SDS011;65949;53.132;17.930;2024-03-25T11:05:51;12.70;;;4.70;;
77016;SDS011;65949;53.132;17.930;2024-03-25T11:08:18;19.20;;;7.80;;
77016;SDS011;65949;53.132;17.930;2024-03-25T11:10:45;18.10;;;8.60;;
77016;SDS011;65949;53.132;17.930;2024-03-25T11:13:13;19.50;;;9.50;;
77016;SDS011;65949;53.132;17.930;2024-03-25T11:15:42;18.10;;;8.70;;
77016;SDS011;65949;53.132;17.930;2024-03-25T11:18:12;13.60;;;6.00;;
77016;SDS011;65949;53.132;17.930;2024-03-25T11:20:42;9.90;;;4.10;;
77016;SDS011;65949;53.132;17.930;2024-03-25T11:23:10;8.60;;;3.00;;
77016;SDS011;65949;53.132;17.930;2024-03-25T11:25:38;9.60;;;3.00;;
77016;SDS011;65949;53.132;17.930;2024-03-25T11:28:06;8.20;;;2.80;;
77016;SDS011;65949;53.132;17.930;2024-03-25T11:30:33;8.60;;;2.70;;
77016;SDS011;65949;53.132;17.930;2024-03-25T11:33:01;6.00;;;2.00;;
77016;SDS011;65949;53.132;17.930;2024-03-25T11:35:38;7.00;;;2.50;;
77016;SDS011;65949;53.132;17.930;2024-03-25T11:38:04;6.10;;;2.10;;
77016;SDS011;65949;53.132;17.930;2024-03-25T11:40:31;5.70;;;1.70;;
77016;SDS011;65949;53.132;17.930;2024-03-25T11:42:58;5.30;;;1.90;;
77016;SDS011;65949;53.132;17.930;2024-03-25T11:45:25;10.30;;;3.30;;
77016;SDS011;65949;53.132;17.930;2024-03-25T11:47:52;16.10;;;5.60;;
77016;SDS011;65949;53.132;17.930;2024-03-25T11:50:19;8.80;;;3.30;;
77016;SDS011;65949;53.132;17.930;2024-03-25T11:52:46;8.90;;;3.20;;
77016;SDS011;65949;53.132;17.930;2024-03-25T11:55:16;8.80;;;3.10;;
77016;SDS011;65949;53.132;17.930;2024-03-25T11:57:44;7.30;;;3.10;;
77016;SDS011;65949;53.132;17.930;2024-03-25T12:00:10;7.90;;;3.50;;
77016;SDS011;65949;53.132;17.930;2024-03-25T12:02:43;7.90;;;3.30;;
77016;SDS011;65949;53.132;17.930;2024-03-25T12:05:13;8.10;;;3.50;;
77016;SDS011;65949;53.132;17.930;2024-03-25T12:07:40;8.30;;;3.60;;
77016;SDS011;65949;53.132;17.930;2024-03-25T12:10:06;6.70;;;3.00;;
77016;SDS011;65949;53.132;17.930;2024-03-25T12:12:52;7.90;;;3.50;;
77016;SDS011;65949;53.132;17.930;2024-03-25T12:15:22;8.00;;;3.80;;
77016;SDS011;65949;53.132;17.930;2024-03-25T12:17:49;8.90;;;3.80;;
77016;SDS011;65949;53.132;17.930;2024-03-25T12:20:18;6.50;;;2.50;;
77016;SDS011;65949;53.132;17.930;2024-03-25T12:22:46;10.70;;;4.20;;
77016;SDS011;65949;53.132;17.930;2024-03-25T12:25:12;7.90;;;4.10;;
77016;SDS011;65949;53.132;17.930;2024-03-25T12:27:39;7.70;;;4.40;;
77016;SDS011;65949;53.132;17.930;2024-03-25T12:30:07;8.50;;;3.80;;
77016;SDS011;65949;53.132;17.930;2024-03-25T12:32:39;7.10;;;2.80;;
77016;SDS011;65949;53.132;17.930;2024-03-25T12:35:10;8.70;;;2.60;;
77016;SDS011;65949;53.132;17.930;2024-03-25T12:37:39;8.60;;;2.90;;
77016;SDS011;65949;53.132;17.930;2024-03-25T12:40:07;6.30;;;2.90;;
77016;SDS011;65949;53.132;17.930;2024-03-25T12:42:36;5.70;;;2.60;;
77016;SDS011;65949;53.132;17.930;2024-03-25T12:45:03;5.50;;;2.30;;
77016;SDS011;65949;53.132;17.930;2024-03-25T12:47:30;6.00;;;2.40;;
77016;SDS011;65949;53.132;17.930;2024-03-25T12:49:57;6.20;;;2.20;;
77016;SDS011;65949;53.132;17.930;2024-03-25T12:52:25;6.10;;;2.60;;
77016;SDS011;65949;53.132;17.930;2024-03-25T12:54:51;6.70;;;2.00;;
77016;SDS011;65949;53.132;17.930;2024-03-25T12:57:18;6.80;;;2.60;;
77016;SDS011;65949;53.132;17.930;2024-03-25T12:59:45;6.90;;;2.70;;
77016;SDS011;65949;53.132;17.930;2024-03-25T13:02:12;8.10;;;2.30;;
77016;SDS011;65949;53.132;17.930;2024-03-25T13:04:39;7.80;;;2.80;;
77016;SDS011;65949;53.132;17.930;2024-03-25T13:07:08;6.10;;;2.10;;
77016;SDS011;65949;53.132;17.930;2024-03-25T13:09:35;6.60;;;2.20;;
77016;SDS011;65949;53.132;17.930;2024-03-25T13:12:02;81.10;;;24.10;;
77016;SDS011;65949;53.132;17.930;2024-03-25T13:14:29;13.50;;;4.80;;
77016;SDS011;65949;53.132;17.930;2024-03-25T13:16:56;20.90;;;6.40;;
77016;SDS011;65949;53.132;17.930;2024-03-25T13:19:22;8.50;;;2.80;;
77016;SDS011;65949;53.132;17.930;2024-03-25T13:21:49;6.60;;;2.80;;
77016;SDS011;65949;53.132;17.930;2024-03-25T13:24:15;8.50;;;3.20;;
77016;SDS011;65949;53.132;17.930;2024-03-25T13:26:42;7.70;;;2.90;;
77016;SDS011;65949;53.132;17.930;2024-03-25T13:29:08;8.10;;;3.30;;
77016;SDS011;65949;53.132;17.930;2024-03-25T13:31:35;13.30;;;4.80;;
77016;SDS011;65949;53.132;17.930;2024-03-25T13:34:01;10.10;;;3.60;;
77016;SDS011;65949;53.132;17.930;2024-03-25T13:36:29;6.70;;;2.80;;
77016;SDS011;65949;53.132;17.930;2024-03-25T13:38:55;15.30;;;6.50;;
77016;SDS011;65949;53.132;17.930;2024-03-25T13:41:22;59.10;;;20.80;;
77016;SDS011;65949;53.132;17.930;2024-03-25T13:43:50;7.80;;;3.40;;
77016;SDS011;65949;53.132;17.930;2024-03-25T13:46:16;6.20;;;2.90;;
77016;SDS011;65949;53.132;17.930;2024-03-25T13:48:43;15.40;;;4.60;;
77016;SDS011;65949;53.132;17.930;2024-03-25T13:51:09;7.90;;;3.30;;
77016;SDS011;65949;53.132;17.930;2024-03-25T13:53:36;7.70;;;3.80;;
77016;SDS011;65949;53.132;17.930;2024-03-25T13:56:03;78.00;;;37.30;;
77016;SDS011;65949;53.132;17.930;2024-03-25T13:58:29;9.90;;;4.50;;
77016;SDS011;65949;53.132;17.930;2024-03-25T14:00:56;6.70;;;3.00;;
77016;SDS011;65949;53.132;17.930;2024-03-25T14:03:22;7.20;;;3.20;;
77016;SDS011;65949;53.132;17.930;2024-03-25T14:05:49;7.40;;;3.00;;
77016;SDS011;65949;53.132;17.930;2024-03-25T14:08:15;12.70;;;8.00;;
77016;SDS011;65949;53.132;17.930;2024-03-25T14:10:45;8.50;;;4.50;;
77016;SDS011;65949;53.132;17.930;2024-03-25T14:13:11;6.40;;;2.80;;
77016;SDS011;65949;53.132;17.930;2024-03-25T14:15:38;7.70;;;3.30;;
77016;SDS011;65949;53.132;17.930;2024-03-25T14:18:05;12.50;;;5.70;;
77016;SDS011;65949;53.132;17.930;2024-03-25T14:20:34;10.90;;;4.30;;
77016;SDS011;65949;53.132;17.930;2024-03-25T14:23:00;8.30;;;3.20;;